Time;durP1;ratioP1;P1;durP2;ratioP2;P2;SDS_P1;SDS_P2;PMS_P1;PMS_P2;Temp;Humidity;BMP_temperature;BMP_pressure;BME280_temperature;BME280_humidity;BME280_pressure;Samples;Min_cycle;Max_cycle;Signal;HPM_P1;HPM_P2
2021/04/22 00:00:18;;;;;;;;;;;;;;;7.70;54.53;100608.77;1700699;84;20290;-73
2021/04/22 00:02:44;;;;;;;;;;;;;;;7.64;54.62;100604.93;1700649;84;20270;-73
2021/04/22 00:05:15;;;;;;;;;;;;;;;7.53;54.62;100601.54;1707624;84;20210;-73
2021/04/22 00:07:41;;;;;;;;;;;;;;;7.46;54.58;100604.56;1697543;83;20593;-74
2021/04/22 00:10:12;;;;;;;;;;;;;;;7.39;54.59;100608.02;1699516;84;20278;-73
2021/04/22 00:12:41;;;;;;;;;;;;;;;7.31;54.57;100611.89;1698553;84;20299;-73
2021/04/22 00:15:15;;;;;;;;;;;;;;;7.24;54.65;100618.38;1699784;84;20302;-74
2021/04/22 00:17:43;;;;;;;;;;;;;;;7.18;54.61;100614.10;1699409;84;20417;-74
2021/04/22 00:20:11;;;;;;;;;;;;;;;7.10;54.68;100609.83;1684629;84;20267;-73
2021/04/22 00:22:37;;;;;;;;;;;;;;;7.04;54.71;100614.55;1681650;84;20201;-73
2021/04/22 00:25:05;;;;;;;;;;;;;;;6.97;54.71;100614.13;1700426;84;20191;-73
2021/04/22 00:27:33;;;;;;;;;;;;;;;6.93;54.81;100620.99;1698520;84;20254;-74
2021/04/22 00:29:59;;;;;;;;;;;;;;;6.93;55.01;100626.13;1680818;84;20276;-73
2021/04/22 00:32:25;;;;;;;;;;;;;;;6.90;55.12;100622.70;1680519;84;109407;-73
2021/04/22 00:34:52;;;;;;;;;;;;;;;6.89;55.11;100621.00;1709332;82;20187;-73
2021/04/22 00:37:18;;;;;;;;;;;;;;;6.88;54.88;100621.85;1700912;84;20274;-73
2021/04/22 00:39:44;;;;;;;;;;;;;;;6.87;55.21;100630.42;1707605;84;20710;-73
2021/04/22 00:42:10;;;;;;;;;;;;;;;6.87;55.04;100633.84;1700880;84;20195;-74
2021/04/22 00:44:37;;;;;;;;;;;;;;;6.86;55.12;100630.85;1708452;84;20270;-74
2021/04/22 00:47:04;;;;;;;;;;;;;;;6.87;55.20;100635.56;1696775;82;20149;-74
2021/04/22 00:49:30;;;;;;;;;;;;;;;6.86;55.11;100633.42;1688826;84;20300;-74
2021/04/22 00:51:56;;;;;;;;;;;;;;;6.84;55.34;100635.56;1694379;84;20263;-73
2021/04/22 00:54:22;;;;;;;;;;;;;;;6.85;55.35;100635.56;1692235;84;20190;-73
2021/04/22 00:56:48;;;;;;;;;;;;;;;6.86;55.46;100633.42;1676764;83;20253;-73
2021/04/22 00:59:15;;;;;;;;;;;;;;;6.89;55.32;100641.56;1705427;82;20282;-73
2021/04/22 01:01:41;;;;;;;;;;;;;;;6.87;55.21;100645.84;1708810;82;20159;-73
2021/04/22 01:04:07;;;;;;;;;;;;;;;6.87;55.32;100641.56;1706294;82;20270;-73
2021/04/22 01:06:33;;;;;;;;;;;;;;;6.84;55.18;100653.55;1698528;83;20257;-73
2021/04/22 01:09:06;;;;;;;;;;;;;;;6.81;55.20;100650.98;1683537;83;20247;-74
2021/04/22 01:11:32;;;;;;;;;;;;;;;6.80;55.20;100653.98;1691717;82;20183;-73
2021/04/22 01:13:59;;;;;;;;;;;;;;;6.80;55.21;100655.69;1704248;82;20280;-73
2021/04/22 01:16:25;;;;;;;;;;;;;;;6.80;55.22;100661.69;1689293;83;20268;-73
2021/04/22 01:18:52;;;;;;;;;;;;;;;6.78;55.08;100650.98;1697530;82;20163;-73
2021/04/22 01:21:26;;;;;;;;;;;;;;;6.75;55.17;100651.88;1700542;82;20248;-73
2021/04/22 01:23:52;;;;;;;;;;;;;;;6.72;55.24;100658.30;1658513;84;20268;-73
2021/04/22 01:26:24;;;;;;;;;;;;;;;6.72;55.23;100658.72;1688145;84;20269;-73
2021/04/22 01:28:51;;;;;;;;;;;;;;;6.69;55.04;100654.44;1687007;82;20273;-73
2021/04/22 01:31:17;;;;;;;;;;;;;;;6.64;55.18;100648.02;1683615;82;20266;-73
2021/04/22 01:33:43;;;;;;;;;;;;;;;6.64;55.29;100649.72;1696314;82;20159;-73
2021/04/22 01:36:09;;;;;;;;;;;;;;;6.60;55.27;100651.44;1679529;83;20166;-73
2021/04/22 01:38:37;;;;;;;;;;;;;;;6.60;55.23;100658.28;1703792;82;20292;-73
2021/04/22 01:41:03;;;;;;;;;;;;;;;6.60;55.31;100654.43;1679928;83;20257;-74
2021/04/22 01:43:30;;;;;;;;;;;;;;;6.56;55.11;100653.57;1692936;83;20184;-74
2021/04/22 01:45:57;;;;;;;;;;;;;;;6.51;55.27;100656.56;1704554;82;20312;-74
2021/04/22 01:48:25;;;;;;;;;;;;;;;6.49;55.25;100655.70;1678450;83;20269;-74
2021/04/22 01:50:52;;;;;;;;;;;;;;;6.48;55.30;100653.13;1695823;82;20268;-73
2021/04/22 01:53:18;;;;;;;;;;;;;;;6.44;55.19;100663.83;1682854;83;20759;-73
2021/04/22 01:55:47;;;;;;;;;;;;;;;6.41;55.19;100660.39;1706427;82;20267;-73
2021/04/22 01:58:16;;;;;;;;;;;;;;;6.38;55.23;100666.39;1681125;84;20351;-73
2021/04/22 02:00:45;;;;;;;;;;;;;;;6.36;55.31;100660.81;1676378;83;20292;-73
2021/04/22 02:03:12;;;;;;;;;;;;;;;6.35;55.32;100658.67;1678369;83;20271;-73
2021/04/22 02:05:39;;;;;;;;;;;;;;;6.35;55.34;100662.95;1683785;82;20292;-73
2021/04/22 02:08:06;;;;;;;;;;;;;;;6.34;55.39;100656.10;1701078;82;20270;-73
2021/04/22 02:10:35;;;;;;;;;;;;;;;6.31;55.34;100653.95;1699538;83;20263;-73
2021/04/22 02:13:00;;;;;;;;;;;;;;;6.28;55.32;100656.95;1698149;83;20258;-73
2021/04/22 02:15:28;;;;;;;;;;;;;;;6.20;55.20;100658.67;1694301;83;20272;-73
2021/04/22 02:17:55;;;;;;;;;;;;;;;6.17;55.31;100659.52;1708122;84;20254;-73
2021/04/22 02:20:21;;;;;;;;;;;;;;;6.14;55.33;100660.80;1694430;84;20274;-73
2021/04/22 02:22:48;;;;;;;;;;;;;;;6.09;55.32;100656.07;1689818;84;20480;-73
2021/04/22 02:25:16;;;;;;;;;;;;;;;6.03;55.26;100654.77;1708295;84;20149;-74
2021/04/22 02:27:42;;;;;;;;;;;;;;;5.98;55.27;100659.03;1700694;84;20459;-73
2021/04/22 02:30:12;;;;;;;;;;;;;;;5.92;55.23;100657.30;1675768;84;20465;-73
2021/04/22 02:32:39;;;;;;;;;;;;;;;5.87;55.39;100664.52;1689306;84;20175;-73
2021/04/22 02:35:06;;;;;;;;;;;;;;;5.82;55.26;100663.64;1708314;84;20187;-73
2021/04/22 02:37:33;;;;;;;;;;;;;;;5.74;55.27;100663.60;1671922;84;20291;-73
2021/04/22 02:39:59;;;;;;;;;;;;;;;5.68;55.32;100660.18;1708406;84;20254;-73
2021/04/22 02:42:25;;;;;;;;;;;;;;;5.60;55.22;100662.28;1707701;84;20254;-73
2021/04/22 02:44:51;;;;;;;;;;;;;;;5.52;55.32;100660.11;1701033;84;20193;-73
2021/04/22 02:47:17;;;;;;;;;;;;;;;5.49;55.33;100665.64;1708298;84;20372;-73
2021/04/22 02:49:43;;;;;;;;;;;;;;;5.46;55.30;100664.34;1691509;84;20264;-73
2021/04/22 02:52:10;;;;;;;;;;;;;;;5.42;55.25;100663.47;1702248;84;20186;-73
2021/04/22 02:54:36;;;;;;;;;;;;;;;5.39;55.41;100667.72;1708330;84;20283;-73
2021/04/22 02:57:02;;;;;;;;;;;;;;;5.37;55.31;100671.55;1708232;84;20149;-73
2021/04/22 02:59:28;;;;;;;;;;;;;;;5.35;55.48;100668.13;1637169;83;5000922;-73
2021/04/22 03:01:54;;;;;;;;;;;;;;;5.33;55.33;100664.69;1684600;84;706672;-73
2021/04/22 03:04:20;;;;;;;;;;;;;;;5.31;55.36;100668.53;1694568;84;20234;-73
2021/04/22 03:06:46;;;;;;;;;;;;;;;5.26;55.30;100663.80;1680769;84;20202;-73
2021/04/22 03:09:12;;;;;;;;;;;;;;;5.25;55.36;100675.32;1698296;84;20291;-73
2021/04/22 03:11:38;;;;;;;;;;;;;;;5.22;55.38;100667.61;1694526;84;20288;-73
2021/04/22 03:14:05;;;;;;;;;;;;;;;5.19;55.50;100674.89;1692272;84;20163;-73
2021/04/22 03:16:32;;;;;;;;;;;;;;;5.17;55.64;100675.72;1698478;84;20279;-73
2021/04/22 03:18:58;;;;;;;;;;;;;;;5.13;55.42;100674.84;1698344;84;20451;-73
2021/04/22 03:21:27;;;;;;;;;;;;;;;5.08;55.40;100682.06;1689164;84;20265;-73
2021/04/22 03:23:53;;;;;;;;;;;;;;;5.01;55.43;100683.72;1692772;84;20210;-73
2021/04/22 03:26:19;;;;;;;;;;;;;;;4.97;55.42;100675.58;1697485;84;20253;-73
2021/04/22 03:28:47;;;;;;;;;;;;;;;4.92;55.71;100674.25;1696813;84;20265;-73
2021/04/22 03:31:14;;;;;;;;;;;;;;;4.91;55.58;100684.07;1687653;84;20200;-73
2021/04/22 03:33:40;;;;;;;;;;;;;;;4.85;55.49;100678.03;1696695;84;20390;-73
2021/04/22 03:36:07;;;;;;;;;;;;;;;4.80;55.51;100676.72;1696835;84;20291;-73
2021/04/22 03:38:33;;;;;;;;;;;;;;;4.76;55.66;100681.80;1692839;84;20308;-73
2021/04/22 03:40:59;;;;;;;;;;;;;;;4.76;55.71;100680.52;1676565;84;20308;-73
2021/04/22 03:43:25;;;;;;;;;;;;;;;4.74;55.70;100688.61;1685060;84;20288;-73
2021/04/22 03:45:52;;;;;;;;;;;;;;;4.69;55.69;100683.45;1687968;84;20194;-73
2021/04/22 03:48:18;;;;;;;;;;;;;;;4.64;55.79;100684.72;1697048;84;20573;-73
2021/04/22 03:50:58;;;;;;;;;;;;;;;4.63;55.79;100685.98;1616470;84;20011968;-73
2021/04/22 03:53:25;;;;;;;;;;;;;;;4.61;56.06;100688.53;1696029;84;20230;-73
2021/04/22 03:55:52;;;;;;;;;;;;;;;4.59;55.85;100688.94;1697069;84;20567;-73
2021/04/22 03:58:18;;;;;;;;;;;;;;;4.58;55.95;100683.80;1690425;84;20414;-73
2021/04/22 04:00:44;;;;;;;;;;;;;;;4.59;56.01;100685.52;1707423;83;20171;-73
2021/04/22 04:03:11;;;;;;;;;;;;;;;4.58;55.85;100683.80;1688655;83;20189;-73
2021/04/22 04:05:37;;;;;;;;;;;;;;;4.56;55.95;100681.23;1681001;84;20307;-73
2021/04/22 04:08:03;;;;;;;;;;;;;;;4.56;56.02;100681.23;1695496;84;20560;-73
2021/04/22 04:10:29;;;;;;;;;;;;;;;4.56;55.95;100683.78;1700079;84;20403;-73
2021/04/22 04:12:55;;;;;;;;;;;;;;;4.57;56.07;100691.05;1703439;84;20440;-73
2021/04/22 04:15:21;;;;;;;;;;;;;;;4.58;56.10;100691.48;1700835;84;20550;-73
2021/04/22 04:17:47;;;;;;;;;;;;;;;4.60;56.05;100693.64;1706502;84;20299;-73
2021/04/22 04:20:14;;;;;;;;;;;;;;;4.64;56.47;100692.40;1697755;84;20281;-73
2021/04/22 04:22:41;;;;;;;;;;;;;;;4.71;56.33;100700.11;1706724;84;20665;-73
2021/04/22 04:25:09;;;;;;;;;;;;;;;4.73;56.34;100701.84;1694589;84;20166;-73
2021/04/22 04:27:35;;;;;;;;;;;;;;;4.75;56.38;100700.16;1686002;84;20544;-73
2021/04/22 04:30:02;;;;;;;;;;;;;;;4.74;56.32;100704.84;1706874;84;20429;-73
2021/04/22 04:32:28;;;;;;;;;;;;;;;4.74;56.46;100707.82;1704807;83;20526;-73
2021/04/22 04:34:54;;;;;;;;;;;;;;;4.77;56.43;100707.84;1700644;84;20445;-73
2021/04/22 04:37:20;;;;;;;;;;;;;;;4.81;56.47;100716.00;1702593;82;20546;-73
2021/04/22 04:39:46;;;;;;;;;;;;;;;4.82;56.48;100708.33;1705789;83;20258;-73
2021/04/22 04:42:15;;;;;;;;;;;;;;;4.84;56.42;100714.75;1702158;83;36307;-73
2021/04/22 04:44:41;;;;;;;;;;;;;;;4.86;56.58;100711.35;1707092;82;20482;-73
2021/04/22 04:47:07;;;;;;;;;;;;;;;4.95;56.74;100710.16;1716822;82;20180;-73
2021/04/22 04:49:33;;;;;;;;;;;;;;;5.10;56.70;100713.27;1709977;82;20582;-73
2021/04/22 04:51:59;;;;;;;;;;;;;;;5.24;56.80;100719.75;1692021;83;20188;-73
2021/04/22 04:54:27;;;;;;;;;;;;;;;5.40;56.80;100715.59;1717114;82;20473;-75
2021/04/22 04:56:53;;;;;;;;;;;;;;;5.53;56.73;100705.84;1701579;83;20453;-75
2021/04/22 04:59:19;;;;;;;;;;;;;;;5.63;56.74;100713.60;1704152;83;20253;-75
2021/04/22 05:01:46;;;;;;;;;;;;;;;5.69;56.56;100714.06;1701172;83;20292;-75
2021/04/22 05:04:12;;;;;;;;;;;;;;;5.74;56.65;100711.48;1702415;82;20535;-75
2021/04/22 05:06:39;;;;;;;;;;;;;;;5.87;56.94;100716.69;1695220;83;20528;-75
2021/04/22 05:09:05;;;;;;;;;;;;;;;6.16;56.82;100714.71;1708494;82;20572;-75
2021/04/22 05:11:31;;;;;;;;;;;;;;;6.54;56.93;100714.36;1705355;82;20431;-75
2021/04/22 05:13:58;;;;;;;;;;;;;;;7.05;57.28;100721.67;1703954;82;20389;-75
2021/04/22 05:16:24;;;;;;;;;;;;;;;7.62;57.16;100721.16;1699930;83;20607;-76
2021/04/22 05:18:50;;;;;;;;;;;;;;;7.79;56.69;100720.70;1706046;82;20291;-73
2021/04/22 05:21:16;;;;;;;;;;;;;;;8.05;56.76;100718.44;1706259;82;20302;-74
2021/04/22 05:23:42;;;;;;;;;;;;;;;8.44;56.79;100716.11;1700541;82;20694;-74
2021/04/22 05:26:08;;;;;;;;;;;;;;;8.87;56.94;100723.96;1692757;83;20287;-74
2021/04/22 05:28:34;;;;;;;;;;;;;;;9.33;56.52;100721.45;1697002;82;20280;-72
2021/04/22 05:31:00;;;;;;;;;;;;;;;9.51;56.59;100731.56;1699899;82;20599;-72
2021/04/22 05:33:26;;;;;;;;;;;;;;;9.63;56.25;100728.43;1688648;83;20228;-74
2021/04/22 05:35:53;;;;;;;;;;;;;;;9.57;56.25;100731.07;1704637;82;20312;-73
2021/04/22 05:38:19;;;;;;;;;;;;;;;9.43;56.15;100733.36;1689184;83;20332;-73
2021/04/22 05:40:45;;;;;;;;;;;;;;;9.26;56.18;100737.42;1711727;82;20222;-73
2021/04/22 05:43:11;;;;;;;;;;;;;;;9.20;56.30;100728.00;1713210;82;20321;-73
2021/04/22 05:45:38;;;;;;;;;;;;;;;9.05;56.17;100729.84;1705666;82;20733;-72
2021/04/22 05:48:07;;;;;;;;;;;;;;;9.26;56.60;100732.26;1706637;83;20312;-72
2021/04/22 05:50:34;;;;;;;;;;;;;;;9.60;56.51;100729.75;1691878;82;20536;-73
2021/04/22 05:53:00;;;;;;;;;;;;;;;9.77;56.13;100735.18;1706910;82;20478;-73
2021/04/22 05:55:26;;;;;;;;;;;;;;;9.81;56.41;100727.38;1707831;82;20609;-73
2021/04/22 05:57:54;;;;;;;;;;;;;;;9.89;56.07;100729.84;1701837;82;20335;-73
2021/04/22 06:00:21;;;;;;;;;;;;;;;9.79;55.93;100733.44;1703092;82;20271;-72
2021/04/22 06:02:47;;;;;;;;;;;;;;;9.91;56.15;100731.98;1697968;83;20167;-73
2021/04/22 06:05:19;;;;;;;;;;;;;;;10.05;56.02;100736.98;1696881;83;20283;-74
2021/04/22 06:07:46;;;;;;;;;;;;;;;10.18;55.93;100739.41;1697960;83;20211;-72
2021/04/22 06:10:13;;;;;;;;;;;;;;;10.42;55.95;100732.22;1696858;83;20415;-72
2021/04/22 06:12:41;;;;;;;;;;;;;;;10.45;55.68;100740.78;1699174;83;20584;-72
2021/04/22 06:15:07;;;;;;;;;;;;;;;10.46;55.80;100737.33;1695886;83;20257;-72
2021/04/22 06:17:33;;;;;;;;;;;;;;;10.43;55.91;100744.27;1698737;83;20307;-72
2021/04/22 06:20:00;;;;;;;;;;;;;;;10.80;55.88;100738.14;1696153;83;20291;-72
2021/04/22 06:22:26;;;;;;;;;;;;;;;10.95;55.76;100735.30;1695720;83;20321;-72
2021/04/22 06:24:52;;;;;;;;;;;;;;;11.18;55.72;100747.88;1698899;83;20171;-72
2021/04/22 06:27:18;;;;;;;;;;;;;;;11.53;55.47;100747.25;1661815;85;21497;-73
2021/04/22 06:29:44;;;;;;;;;;;;;;;11.60;55.27;100748.41;1694502;83;20218;-73
2021/04/22 06:32:11;;;;;;;;;;;;;;;11.66;55.23;100746.15;1688511;83;20310;-72
2021/04/22 06:34:37;;;;;;;;;;;;;;;11.73;55.39;100739.97;1696007;83;20327;-73
2021/04/22 06:37:03;;;;;;;;;;;;;;;11.93;55.45;100743.52;1698014;83;20387;-73
2021/04/22 06:39:30;;;;;;;;;;;;;;;12.37;55.34;100745.18;1699235;82;20259;-73
2021/04/22 06:41:57;;;;;;;;;;;;;;;12.87;55.35;100745.78;1695559;83;20256;-73
2021/04/22 06:44:23;;;;;;;;;;;;;;;13.39;55.24;100734.12;1687179;83;20276;-72
2021/04/22 06:46:49;;;;;;;;;;;;;;;13.65;54.69;100739.47;1690598;83;20258;-72
2021/04/22 06:49:15;;;;;;;;;;;;;;;13.57;54.16;100738.37;1697522;83;20181;-73
2021/04/22 06:51:42;;;;;;;;;;;;;;;13.27;54.43;100752.62;1693125;83;20256;-72
2021/04/22 06:54:08;;;;;;;;;;;;;;;13.06;54.60;100752.21;1699259;83;20164;-72
2021/04/22 06:56:35;;;;;;;;;;;;;;;13.15;54.67;100754.59;1699660;83;20160;-72
2021/04/22 06:59:02;;;;;;;;;;;;;;;13.33;54.82;100757.66;1690460;83;20208;-72
2021/04/22 07:01:28;;;;;;;;;;;;;;;13.27;54.11;100760.41;1694071;83;20192;-72
2021/04/22 07:03:54;;;;;;;;;;;;;;;12.91;54.09;100757.80;1712715;83;20259;-72
2021/04/22 07:06:21;;;;;;;;;;;;;;;12.61;54.38;100748.95;1708439;83;20273;-73
2021/04/22 07:08:48;;;;;;;;;;;;;;;12.84;54.69;100756.23;1705158;82;20267;-72
2021/04/22 07:11:14;;;;;;;;;;;;;;;13.20;54.56;100745.42;1714898;82;20275;-72
2021/04/22 07:13:40;;;;;;;;;;;;;;;13.44;54.42;100753.91;1715983;82;20755;-73
2021/04/22 07:16:06;;;;;;;;;;;;;;;13.72;54.29;100757.05;1713847;82;20428;-72
2021/04/22 07:18:33;;;;;;;;;;;;;;;13.72;54.06;100756.61;1708177;82;20259;-72
2021/04/22 07:20:59;;;;;;;;;;;;;;;14.03;54.13;100757.94;1715409;82;20267;-72
2021/04/22 07:23:27;;;;;;;;;;;;;;;14.12;53.63;100758.09;1711305;82;20275;-73
2021/04/22 07:25:54;;;;;;;;;;;;;;;14.11;53.51;100757.69;1708000;82;20510;-72
2021/04/22 07:28:20;;;;;;;;;;;;;;;14.16;53.56;100761.86;1708752;82;20265;-73
2021/04/22 07:30:46;;;;;;;;;;;;;;;14.17;53.52;100754.91;1686935;83;20282;-72
2021/04/22 07:33:12;;;;;;;;;;;;;;;14.24;53.69;100757.74;1675369;83;20268;-73
2021/04/22 07:35:39;;;;;;;;;;;;;;;14.19;53.25;100766.98;1671997;83;20228;-73
2021/04/22 07:38:06;;;;;;;;;;;;;;;14.34;53.51;100753.98;1708357;82;20259;-72
2021/04/22 07:40:33;;;;;;;;;;;;;;;14.41;52.97;100760.75;1690815;83;20270;-73
2021/04/22 07:42:59;;;;;;;;;;;;;;;14.55;53.02;100762.49;1707051;82;20269;-73
2021/04/22 07:45:31;;;;;;;;;;;;;;;14.61;52.98;100773.58;1714685;82;20245;-72
2021/04/22 07:47:59;;;;;;;;;;;;;;;14.54;52.56;100757.33;1692528;83;20273;-73
2021/04/22 07:50:25;;;;;;;;;;;;;;;14.52;52.60;100772.99;1688350;83;20257;-72
2021/04/22 07:52:54;;;;;;;;;;;;;;;14.43;52.36;100771.11;1710141;82;20251;-72
2021/04/22 07:55:24;;;;;;;;;;;;;;;14.32;52.79;100768.78;1688014;83;20249;-72
2021/04/22 07:57:50;;;;;;;;;;;;;;;14.28;52.51;100768.47;1691321;83;20242;-73
2021/04/22 08:00:19;;;;;;;;;;;;;;;14.39;52.12;100772.91;1678847;83;20302;-72
2021/04/22 08:02:46;;;;;;;;;;;;;;;14.33;52.30;100777.44;1670588;85;20258;-73
2021/04/22 08:05:14;;;;;;;;;;;;;;;14.28;51.98;100779.31;1679767;83;20296;-73
2021/04/22 08:07:40;;;;;;;;;;;;;;;14.35;52.04;100783.00;1676181;84;20298;-73
2021/04/22 08:10:15;;;;;;;;;;;;;;;14.34;51.87;100782.59;1675748;84;20262;-73
2021/04/22 08:12:44;;;;;;;;;;;;;;;14.48;52.08;100784.39;1680206;84;20267;-73
2021/04/22 08:15:11;;;;;;;;;;;;;;;14.56;51.79;100788.89;1677294;84;20222;-73
2021/04/22 08:17:40;;;;;;;;;;;;;;;14.62;51.89;100785.70;1699493;84;20211;-73
2021/04/22 08:20:10;;;;;;;;;;;;;;;14.60;51.29;100787.49;1700604;83;20264;-73
2021/04/22 08:22:37;;;;;;;;;;;;;;;14.23;51.07;100785.95;1706337;82;20472;-73
2021/04/22 08:25:08;;;;;;;;;;;;;;;13.94;51.33;100788.08;1701844;83;20475;-73
2021/04/22 08:27:34;;;;;;;;;;;;;;;13.68;51.15;100791.81;1707753;82;20151;-72
2021/04/22 08:30:01;;;;;;;;;;;;;;;13.28;51.45;100785.48;1706306;82;20263;-73
2021/04/22 08:32:27;;;;;;;;;;;;;;;13.10;51.24;100795.83;1709333;82;20230;-73
2021/04/22 08:34:53;;;;;;;;;;;;;;;13.03;51.24;100796.41;1708902;82;20731;-73
2021/04/22 08:37:19;;;;;;;;;;;;;;;12.98;51.18;100787.91;1709331;82;20246;-73
2021/04/22 08:39:45;;;;;;;;;;;;;;;12.99;51.27;100792.66;1706796;82;20163;-73
2021/04/22 08:42:11;;;;;;;;;;;;;;;13.04;51.14;100791.63;1701341;83;20275;-73
2021/04/22 08:44:38;;;;;;;;;;;;;;;13.01;50.91;100797.34;1708273;82;20199;-73
2021/04/22 08:47:04;;;;;;;;;;;;;;;13.07;50.83;100793.30;1704906;82;20250;-73
2021/04/22 08:49:30;;;;;;;;;;;;;;;13.17;50.55;100781.84;1708897;82;20802;-73
2021/04/22 08:51:56;;;;;;;;;;;;;;;13.14;50.74;100799.61;1701192;83;20269;-73
2021/04/22 08:54:23;;;;;;;;;;;;;;;13.40;50.78;100785.19;1713612;82;20210;-73
2021/04/22 08:56:49;;;;;;;;;;;;;;;13.67;50.66;100797.45;1717268;82;20203;-73
2021/04/22 08:59:16;;;;;;;;;;;;;;;13.98;50.69;100788.85;1714046;82;20313;-73
2021/04/22 09:01:45;;;;;;;;;;;;;;;14.36;51.01;100786.45;1676904;84;20290;-72
2021/04/22 09:04:12;;;;;;;;;;;;;;;14.70;51.19;100790.23;1703515;83;20266;-73
2021/04/22 09:06:38;;;;;;;;;;;;;;;14.89;51.13;100793.53;1698012;83;20200;-73
2021/04/22 09:09:07;;;;;;;;;;;;;;;14.97;51.05;100782.02;1703746;83;20282;-73
2021/04/22 09:11:42;;;;;;;;;;;;;;;14.74;51.05;100784.03;1696884;83;20253;-73
2021/04/22 09:14:13;;;;;;;;;;;;;;;14.34;50.59;100796.91;1701390;83;20180;-72
2021/04/22 09:16:40;;;;;;;;;;;;;;;13.95;50.68;100795.44;1702471;83;20171;-72
2021/04/22 09:19:09;;;;;;;;;;;;;;;13.59;50.53;100785.95;1702863;83;20275;-72
2021/04/22 09:21:41;;;;;;;;;;;;;;;13.26;50.37;100808.89;1670926;84;20288;-73
2021/04/22 09:24:14;;;;;;;;;;;;;;;12.93;50.07;100790.61;1679411;84;20307;-72
2021/04/22 09:26:51;;;;;;;;;;;;;;;12.88;50.23;100800.69;1676840;84;20299;-72
2021/04/22 09:29:35;;;;;;;;;;;;;;;12.89;49.95;100794.61;1699838;82;20291;-72
2021/04/22 09:32:19;;;;;;;;;;;;;;;12.82;49.79;100794.33;1709692;82;20184;-72
2021/04/22 09:34:51;;;;;;;;;;;;;;;12.63;49.56;100800.81;1711154;82;20274;-72
2021/04/22 09:37:23;;;;;;;;;;;;;;;12.60;49.63;100803.02;1705827;82;20765;-73
2021/04/22 09:39:50;;;;;;;;;;;;;;;12.59;49.50;100802.61;1665603;84;20266;-73
2021/04/22 09:42:18;;;;;;;;;;;;;;;12.52;49.50;100810.11;1674614;84;20295;-73
2021/04/22 09:44:48;;;;;;;;;;;;;;;12.37;49.23;100808.72;1668833;84;20214;-72
2021/04/22 09:47:22;;;;;;;;;;;;;;;12.16;49.15;100804.80;1677306;84;20176;-72
2021/04/22 09:49:53;;;;;;;;;;;;;;;12.03;49.14;100814.99;1670306;84;20290;-73
2021/04/22 09:52:20;;;;;;;;;;;;;;;12.16;49.52;100809.98;1684777;84;20286;-72
2021/04/22 09:54:50;;;;;;;;;;;;;;;12.33;49.14;100798.44;1672487;84;20263;-73
2021/04/22 09:57:25;;;;;;;;;;;;;;;12.32;49.05;100802.77;1700083;83;20277;-73
2021/04/22 09:59:52;;;;;;;;;;;;;;;12.30;48.91;100801.09;1702352;82;20278;-73
2021/04/22 10:02:19;;;;;;;;;;;;;;;12.28;48.79;100796.37;1696010;83;20286;-72
2021/04/22 10:04:47;;;;;;;;;;;;;;;12.09;48.71;100814.88;1678676;85;20176;-74
2021/04/22 10:07:30;;;;;;;;;;;;;;;12.02;48.79;100811.13;1686249;84;20284;-74
2021/04/22 10:09:58;;;;;;;;;;;;;;;12.04;48.80;100818.00;1661322;84;20266;-75
2021/04/22 10:12:28;;;;;;;;;;;;;;;12.00;48.64;100807.72;1661386;84;20532;-75
2021/04/22 10:14:55;;;;;;;;;;;;;;;11.87;48.67;100813.59;1661352;84;20267;-73
2021/04/22 10:17:24;;;;;;;;;;;;;;;11.88;48.75;100814.86;1679393;84;20267;-72
2021/04/22 10:19:59;;;;;;;;;;;;;;;11.96;48.68;100810.80;1697832;83;20280;-72
2021/04/22 10:22:37;;;;;;;;;;;;;;;12.00;48.44;100812.90;1700007;83;20289;-73
2021/04/22 10:25:11;;;;;;;;;;;;;;;11.86;48.31;100808.85;1698716;83;20262;-72
2021/04/22 10:27:39;;;;;;;;;;;;;;;11.85;48.55;100805.84;1698239;83;20250;-73
2021/04/22 10:30:10;;;;;;;;;;;;;;;11.91;48.38;100795.38;1699182;83;20269;-73
2021/04/22 10:32:39;;;;;;;;;;;;;;;11.93;48.36;100805.71;1678097;83;20282;-73
2021/04/22 10:35:06;;;;;;;;;;;;;;;12.05;48.40;100798.11;1693245;83;20301;-72
2021/04/22 10:37:33;;;;;;;;;;;;;;;11.99;48.09;100802.12;1698898;83;20264;-72
2021/04/22 10:40:00;;;;;;;;;;;;;;;11.80;47.91;100799.89;1697742;83;20268;-72
2021/04/22 10:42:26;;;;;;;;;;;;;;;11.71;47.99;100809.53;1694778;83;20526;-72
2021/04/22 10:44:53;;;;;;;;;;;;;;;11.63;48.01;100808.37;1697937;83;20236;-72
2021/04/22 10:47:21;;;;;;;;;;;;;;;11.55;47.99;100802.02;1697205;83;20292;-72
2021/04/22 10:49:49;;;;;;;;;;;;;;;11.52;48.19;100804.66;1701220;83;20551;-73
2021/04/22 10:52:16;;;;;;;;;;;;;;;11.65;48.12;100794.95;1698561;83;20252;-73
2021/04/22 10:54:44;;;;;;;;;;;;;;;11.65;47.83;100800.57;1691687;83;20282;-73
2021/04/22 10:57:19;;;;;;;;;;;;;;;11.49;47.81;100803.86;1696916;83;20250;-73
2021/04/22 10:59:48;;;;;;;;;;;;;;;11.38;48.02;100805.80;1686141;83;20493;-73
2021/04/22 11:02:21;;;;;;;;;;;;;;;11.23;48.48;100811.62;1674322;83;20271;-73
2021/04/22 11:04:49;;;;;;;;;;;;;;;11.13;48.69;100813.94;1688935;84;20448;-73
2021/04/22 11:07:20;;;;;;;;;;;;;;;10.99;48.74;100821.48;1668499;83;20279;-73
2021/04/22 11:09:46;;;;;;;;;;;;;;;10.75;48.68;100834.35;1672730;84;20275;-73
2021/04/22 11:12:24;;;;;;;;;;;;;;;10.34;48.79;100827.13;1678695;84;20191;-73
2021/04/22 11:14:54;;;;;;;;;;;;;;;10.01;49.32;100820.56;1657609;84;20241;-73
2021/04/22 11:17:39;;;;;;;;;;;;;;;9.87;49.60;100816.86;1676271;84;20251;-73
2021/04/22 11:20:15;;;;;;;;;;;;;;;9.77;49.83;100821.25;1666152;84;20819;-73
2021/04/22 11:22:41;;;;;;;;;;;;;;;9.74;49.90;100822.57;1676557;84;20275;-73
2021/04/22 11:25:09;;;;;;;;;;;;;;;9.69;50.43;100823.05;1664856;84;20204;-73
2021/04/22 11:27:51;;;;;;;;;;;;;;;9.74;50.85;100821.28;1672169;84;20268;-73
2021/04/22 11:30:31;;;;;;;;;;;;;;;9.88;51.08;100815.52;1655167;84;20289;-74
2021/04/22 11:32:59;;;;;;;;;;;;;;;10.04;51.06;100807.61;1701944;83;20258;-73
2021/04/22 11:35:28;;;;;;;;;;;;;;;10.17;50.79;100806.61;1690061;83;20267;-73
2021/04/22 11:38:07;;;;;;;;;;;;;;;10.32;50.62;100796.13;1701389;82;20182;-73
2021/04/22 11:40:45;;;;;;;;;;;;;;;10.48;50.62;100787.72;1674048;84;20251;-73
2021/04/22 11:43:22;;;;;;;;;;;;;;;10.69;50.78;100783.56;1678441;83;20257;-73
2021/04/22 11:45:52;;;;;;;;;;;;;;;10.88;50.25;100781.57;1710286;82;20486;-73
2021/04/22 11:48:18;;;;;;;;;;;;;;;11.00;50.16;100783.09;1693702;83;20174;-73
2021/04/22 11:50:46;;;;;;;;;;;;;;;11.07;49.85;100770.04;1703165;83;20470;-73
2021/04/22 11:53:13;;;;;;;;;;;;;;;11.05;49.67;100792.94;1703022;83;20307;-73
2021/04/22 11:55:42;;;;;;;;;;;;;;;11.00;49.59;100800.77;1703983;83;20252;-73
2021/04/22 11:58:13;;;;;;;;;;;;;;;10.92;49.59;100798.73;1706689;82;20258;-73
2021/04/22 12:00:42;;;;;;;;;;;;;;;10.90;49.70;100801.81;1707562;82;20274;-73
2021/04/22 12:03:09;;;;;;;;;;;;;;;10.94;49.61;100807.33;1669236;84;20275;-73
2021/04/22 12:05:36;;;;;;;;;;;;;;;11.01;49.69;100810.67;1697409;83;20275;-73
2021/04/22 12:08:05;;;;;;;;;;;;;;;11.04;49.55;100801.58;1692954;82;20283;-75
2021/04/22 12:10:34;;;;;;;;;;;;;;;11.12;49.61;100830.78;1671590;84;20273;-73
2021/04/22 12:13:11;;;;;;;;;;;;;;;11.12;49.29;100842.44;1700002;84;20473;-73
2021/04/22 12:15:39;;;;;;;;;;;;;;;10.74;49.18;100845.57;1705925;83;20311;-72
2021/04/22 12:18:06;;;;;;;;;;;;;;;10.34;49.29;100834.88;1704301;82;20281;-73
2021/04/22 12:20:32;;;;;;;;;;;;;;;10.07;49.48;100820.50;1704294;83;20257;-73
2021/04/22 12:23:00;;;;;;;;;;;;;;;9.78;49.34;100824.69;1698765;82;20254;-73
2021/04/22 12:25:27;;;;;;;;;;;;;;;9.55;49.42;100846.40;1707101;82;20151;-73
2021/04/22 12:28:02;;;;;;;;;;;;;;;9.46;49.38;100858.09;1692087;83;20223;-73
2021/04/22 12:30:40;;;;;;;;;;;;;;;9.39;49.54;100853.83;1671491;84;20272;-72
2021/04/22 12:33:12;;;;;;;;;;;;;;;9.38;49.68;100852.55;1664453;84;20279;-72
2021/04/22 12:35:41;;;;;;;;;;;;;;;9.38;49.38;100852.55;1695546;83;20197;-72
2021/04/22 12:38:20;;;;;;;;;;;;;;;9.28;49.52;100849.21;1698270;82;20186;-73
2021/04/22 12:40:59;;;;;;;;;;;;;;;9.25;49.57;100844.93;1703335;83;20489;-74
2021/04/22 12:43:28;;;;;;;;;;;;;;;9.21;49.46;100839.37;1715334;82;20265;-74
2021/04/22 12:45:57;;;;;;;;;;;;;;;9.21;49.49;100848.39;1694089;83;20197;-74